Etusivu
METAR-TAF:

METAR-TAF

Lentoasemat :

Imperial Municipal Airport

Imperial, Nebraska, Yhdysvallat

Leveyspiiri: 40-31N, Pituuspiiri: 101-37W, korkeus merenpinnasta: 997 m

Tämänhetkinen sää

Tämä raportti tehtiin 25 minuuttia sitten, kello 15.53 UTC
Tuuli 17 kn etelästä puuskistuen 29 kn:hen
Lämpötila 26°C
Kosteus 61%
Ilmanpaine 1022 hPa
Näkyvyys: 16.1 km
Hajonneita pilviä 2800 ft:n korkeudessa
Pilvistä 3600 ft:n korkeudessa

METAR: KIML 201553Z AUTO 18017G29KT 10SM BKN028 OVC036 26/18 A3017 RMK AO2 PK WND 15036/1457 SLP191 T02560178

Aika: 10:18 (16:18 UTC)


TAF: puuttuu

Säähavainnot ja -ennusteet yli 4000 lentoasemalta (METAR- ja TAF-raportit).

Käytössä olevat sääasemat on merkitty karttaan keltaisilla ja punaisilla pisteillä.

Aseta hiiri pisteen päälle nähdäksesi sääaseman nimen.

Klikkaa sitten nähdäksesi säähavainnot ja -ennusteet.

Kartan vaihtaminen: klikkaa mustalla rastilla varustettuja vihreitä pisteitä, niin voit zoomata sisään; viivalla varustettua vihreää pistettä, niin voit zoomata ulos tai vihreitä nuolia, niin pääset viereisille kartoille.


METAR-TAF: